Time,TemperatureF,DewpointF,PressureIn,WindDirection,WindDirectionDegrees,WindSpeedMPH,WindSpeedGustMPH,Humidity,HourlyPrecipIn,Conditions,Clouds,dailyrainin,SoftwareType,DateUTC
2013-07-14 00:01:00,73.0,64.0,-100.00,North,-999,-999.0,-999.0,73,0.00,,,0.00,,2013-07-14 00:01:00,
2013-07-14 00:12:00,73.0,64.0,-100.00,North,-999,-999.0,-999.0,72,0.00,,,0.00,,2013-07-14 00:12:00,
2013-07-14 00:21:00,73.0,64.0,-100.00,North,-999,-999.0,-999.0,72,0.00,,,0.00,,2013-07-14 00:21:00,
2013-07-14 00:53:00,72.0,63.0,-100.00,North,-999,-999.0,-999.0,70,0.00,,,0.00,,2013-07-14 00:53:00,
2013-07-14 01:02:00,72.0,63.0,-100.00,North,-999,-999.0,-999.0,71,0.00,,,0.00,,2013-07-14 01:02:00,
2013-07-14 01:11:00,72.0,63.0,-100.00,North,-999,-999.0,-999.0,71,0.00,,,0.00,,2013-07-14 01:11:00,
2013-07-14 01:22:00,72.0,63.0,-100.00,North,-999,-999.0,-999.0,70,0.00,,,0.00,,2013-07-14 01:22:00,
2013-07-14 01:32:00,72.0,63.0,-100.00,North,-999,-999.0,-999.0,70,0.00,,,0.00,,2013-07-14 01:32:00,
2013-07-14 01:52:00,71.0,61.0,-100.00,North,-999,-999.0,-999.0,70,0.00,,,0.00,,2013-07-14 01:52:00,
2013-07-14 02:22:00,71.0,61.0,-100.00,North,-999,-999.0,-999.0,70,0.00,,,0.00,,2013-07-14 02:22:00,
2013-07-14 02:32:00,70.0,61.0,-100.00,North,-999,-999.0,-999.0,71,0.00,,,0.00,,2013-07-14 02:32:00,
2013-07-14 02:43:00,70.0,61.0,-100.00,North,-999,-999.0,-999.0,72,0.00,,,0.00,,2013-07-14 02:43:00,
2013-07-14 03:01:00,69.0,61.0,-100.00,North,-999,-999.0,-999.0,73,0.00,,,0.00,,2013-07-14 03:01:00,
2013-07-14 03:22:00,69.0,61.0,-100.00,North,-999,-999.0,-999.0,74,0.00,,,0.00,,2013-07-14 03:22:00,
2013-07-14 03:32:00,69.0,61.0,-100.00,North,-999,-999.0,-999.0,74,0.00,,,0.00,,2013-07-14 03:32:00,
2013-07-14 03:53:00,69.0,61.0,-100.00,North,-999,-999.0,-999.0,74,0.00,,,0.00,,2013-07-14 03:53:00,
2013-07-14 04:02:00,69.0,61.0,-100.00,North,-999,-999.0,-999.0,73,0.00,,,0.00,,2013-07-14 04:02:00,
2013-07-14 04:11:00,69.0,61.0,-100.00,North,-999,-999.0,-999.0,73,0.00,,,0.00,,2013-07-14 04:11:00,
2013-07-14 04:32:00,69.0,61.0,-100.00,North,-999,-999.0,-999.0,72,0.00,,,0.00,,2013-07-14 04:32:00,
2013-07-14 05:02:00,69.0,61.0,-100.00,North,-999,-999.0,-999.0,73,0.00,,,0.00,,2013-07-14 05:02:00,
2013-07-14 05:11:00,69.0,61.0,-100.00,North,-999,-999.0,-999.0,73,0.00,,,0.00,,2013-07-14 05:11:00,
2013-07-14 05:23:00,69.0,61.0,-100.00,North,-999,-999.0,-999.0,74,0.00,,,0.00,,2013-07-14 05:23:00,
2013-07-14 05:32:00,69.0,61.0,-100.00,North,-999,-999.0,-999.0,74,0.00,,,0.00,,2013-07-14 05:32:00,
2013-07-14 06:22:00,69.0,61.0,-100.00,North,-999,-999.0,-999.0,75,0.00,,,0.00,,2013-07-14 06:22:00,
2013-07-14 07:02:00,68.0,61.0,-100.00,North,-999,-999.0,-999.0,78,0.00,,,0.00,,2013-07-14 07:02:00,
2013-07-14 07:22:00,67.0,61.0,-100.00,North,-999,-999.0,-999.0,80,0.00,,,0.00,,2013-07-14 07:22:00,
2013-07-14 07:33:00,66.0,61.0,-100.00,North,-999,-999.0,-999.0,81,0.00,,,0.00,,2013-07-14 07:33:00,
2013-07-14 08:01:00,66.0,61.0,-100.00,North,-999,-999.0,-999.0,83,0.00,,,0.00,,2013-07-14 08:01:00,
2013-07-14 08:22:00,67.0,63.0,-100.00,North,-999,-999.0,-999.0,83,0.00,,,0.00,,2013-07-14 08:22:00,
2013-07-14 08:53:00,67.0,63.0,-100.00,North,-999,-999.0,-999.0,83,0.00,,,0.00,,2013-07-14 08:53:00,
2013-07-14 09:22:00,67.0,63.0,-100.00,North,-999,-999.0,-999.0,83,0.00,,,0.00,,2013-07-14 09:22:00,
2013-07-14 10:22:00,67.0,61.0,-100.00,North,-999,-999.0,-999.0,83,0.00,,,0.00,,2013-07-14 10:22:00,
2013-07-14 10:53:00,67.0,63.0,-100.00,North,-999,-999.0,-999.0,84,0.00,,,0.00,,2013-07-14 10:53:00,
2013-07-14 11:02:00,67.0,63.0,-100.00,North,-999,-999.0,-999.0,84,0.00,,,0.00,,2013-07-14 11:02:00,
2013-07-14 12:11:00,67.0,63.0,-100.00,North,-999,-999.0,-999.0,84,0.00,,,0.00,,2013-07-14 12:11:00,
2013-07-14 12:33:00,67.0,63.0,-100.00,North,-999,-999.0,-999.0,85,0.00,,,0.00,,2013-07-14 12:33:00,
2013-07-14 12:52:00,68.0,63.0,-100.00,North,-999,-999.0,-999.0,85,0.00,,,0.00,,2013-07-14 12:52:00,
2013-07-14 13:01:00,68.0,63.0,-100.00,North,-999,-999.0,-999.0,85,0.00,,,0.00,,2013-07-14 13:01:00,
2013-07-14 13:22:00,69.0,64.0,-100.00,North,-999,-999.0,-999.0,85,0.00,,,0.00,,2013-07-14 13:22:00,
2013-07-14 14:02:00,70.0,64.0,-100.00,North,-999,-999.0,-999.0,81,0.00,,,0.00,,2013-07-14 14:02:00,
2013-07-14 14:23:00,71.0,63.0,-100.00,North,-999,-999.0,-999.0,75,0.00,,,0.00,,2013-07-14 14:23:00,
2013-07-14 15:22:00,72.0,63.0,-100.00,North,-999,-999.0,-999.0,71,0.00,,,0.00,,2013-07-14 15:22:00,
2013-07-14 15:32:00,72.0,63.0,-100.00,North,-999,-999.0,-999.0,71,0.00,,,0.00,,2013-07-14 15:32:00,
2013-07-14 16:01:00,74.0,63.0,-100.00,North,-999,-999.0,-999.0,67,0.00,,,0.00,,2013-07-14 16:01:00,
2013-07-14 16:22:00,75.0,61.0,-100.00,North,-999,-999.0,-999.0,59,0.00,,,0.00,,2013-07-14 16:22:00,
2013-07-14 16:32:00,75.0,61.0,-100.00,North,-999,-999.0,-999.0,60,0.00,,,0.00,,2013-07-14 16:32:00,
2013-07-14 16:53:00,76.0,61.0,-100.00,North,-999,-999.0,-999.0,60,0.00,,,0.00,,2013-07-14 16:53:00,
2013-07-14 17:22:00,76.0,61.0,-100.00,North,-999,-999.0,-999.0,58,0.00,,,0.00,,2013-07-14 17:22:00,
2013-07-14 18:22:00,73.0,61.0,-100.00,North,-999,-999.0,-999.0,64,0.00,,,0.00,,2013-07-14 18:22:00,
2013-07-14 18:52:00,73.0,59.0,-100.00,North,-999,-999.0,-999.0,61,0.00,,,0.00,,2013-07-14 18:52:00,
2013-07-14 19:22:00,73.0,61.0,-100.00,North,-999,-999.0,-999.0,67,0.00,,,0.00,,2013-07-14 19:22:00,
2013-07-14 20:02:00,77.0,63.0,-100.00,North,-999,-999.0,-999.0,59,0.00,,,0.00,,2013-07-14 20:02:00,
2013-07-14 20:22:00,78.0,63.0,-100.00,North,-999,-999.0,-999.0,57,0.00,,,0.00,,2013-07-14 20:22:00,
2013-07-14 21:22:00,81.0,63.0,-100.00,North,-999,-999.0,-999.0,54,0.00,,,0.00,,2013-07-14 21:22:00,
2013-07-14 21:52:00,80.0,64.0,-100.00,North,-999,-999.0,-999.0,58,0.00,,,0.00,,2013-07-14 21:52:00,
2013-07-14 22:22:00,85.0,66.0,-100.00,North,-999,-999.0,-999.0,53,0.00,,,0.00,,2013-07-14 22:22:00,
2013-07-14 22:53:00,82.0,64.0,-100.00,North,-999,-999.0,-999.0,53,0.00,,,0.00,,2013-07-14 22:53:00,
2013-07-14 23:11:00,81.0,64.0,-100.00,North,-999,-999.0,-999.0,54,0.00,,,0.00,,2013-07-14 23:11:00,
2013-07-14 23:22:00,82.0,66.0,-100.00,North,-999,-999.0,-999.0,58,0.00,,,0.00,,2013-07-14 23:22:00,
2013-07-14 23:32:00,82.0,64.0,-100.00,North,-999,-999.0,-999.0,57,0.00,,,0.00,,2013-07-14 23:32:00,
2013-07-14 23:53:00,85.0,64.0,-100.00,North,-999,-999.0,-999.0,51,0.00,,,0.00,,2013-07-14 23:53:00,